sensor_id;sensor_type;location;lat;lon;timestamp;temperature;humidity
18777;DHT22;9517;51.174;4.160;2024-01-30T00:01:25;10.30;99.90
18777;DHT22;9517;51.174;4.160;2024-01-30T00:03:52;10.30;99.90
18777;DHT22;9517;51.174;4.160;2024-01-30T00:06:19;10.30;99.90
18777;DHT22;9517;51.174;4.160;2024-01-30T00:08:48;10.20;99.90
18777;DHT22;9517;51.174;4.160;2024-01-30T00:11:17;10.30;99.90
18777;DHT22;9517;51.174;4.160;2024-01-30T00:13:44;10.30;99.90
18777;DHT22;9517;51.174;4.160;2024-01-30T00:16:20;10.30;99.90
18777;DHT22;9517;51.174;4.160;2024-01-30T00:18:47;10.30;99.90
18777;DHT22;9517;51.174;4.160;2024-01-30T00:21:14;10.40;99.90
18777;DHT22;9517;51.174;4.160;2024-01-30T00:23:42;10.40;99.90
18777;DHT22;9517;51.174;4.160;2024-01-30T00:26:09;10.40;99.90
18777;DHT22;9517;51.174;4.160;2024-01-30T00:28:38;10.40;99.90
18777;DHT22;9517;51.174;4.160;2024-01-30T00:31:06;10.40;99.90
18777;DHT22;9517;51.174;4.160;2024-01-30T00:33:33;10.40;99.90
18777;DHT22;9517;51.174;4.160;2024-01-30T00:36:00;10.40;99.90
18777;DHT22;9517;51.174;4.160;2024-01-30T00:38:28;10.40;99.90
18777;DHT22;9517;51.174;4.160;2024-01-30T00:40:55;10.30;99.90
18777;DHT22;9517;51.174;4.160;2024-01-30T00:43:22;10.40;99.90
18777;DHT22;9517;51.174;4.160;2024-01-30T00:45:52;10.40;99.90
18777;DHT22;9517;51.174;4.160;2024-01-30T00:48:19;10.40;99.90
18777;DHT22;9517;51.174;4.160;2024-01-30T00:50:46;10.30;99.90
18777;DHT22;9517;51.174;4.160;2024-01-30T00:53:14;10.30;99.90
18777;DHT22;9517;51.174;4.160;2024-01-30T00:55:41;10.20;99.90
18777;DHT22;9517;51.174;4.160;2024-01-30T00:58:08;10.20;99.90
18777;DHT22;9517;51.174;4.160;2024-01-30T01:00:36;10.20;99.90
18777;DHT22;9517;51.174;4.160;2024-01-30T01:03:04;10.20;99.90
18777;DHT22;9517;51.174;4.160;2024-01-30T01:05:32;10.40;99.90
18777;DHT22;9517;51.174;4.160;2024-01-30T01:07:59;10.40;99.90
18777;DHT22;9517;51.174;4.160;2024-01-30T01:10:26;10.30;99.90
18777;DHT22;9517;51.174;4.160;2024-01-30T01:12:54;10.30;99.90
18777;DHT22;9517;51.174;4.160;2024-01-30T01:15:21;10.30;99.90
18777;DHT22;9517;51.174;4.160;2024-01-30T01:17:48;10.40;99.90
18777;DHT22;9517;51.174;4.160;2024-01-30T01:20:17;10.40;99.90
18777;DHT22;9517;51.174;4.160;2024-01-30T01:22:44;10.30;99.90
18777;DHT22;9517;51.174;4.160;2024-01-30T01:25:12;10.30;99.90
18777;DHT22;9517;51.174;4.160;2024-01-30T01:27:39;10.30;99.90
18777;DHT22;9517;51.174;4.160;2024-01-30T01:30:10;10.30;99.90
18777;DHT22;9517;51.174;4.160;2024-01-30T01:32:37;10.30;99.90
18777;DHT22;9517;51.174;4.160;2024-01-30T01:35:10;10.20;99.90
18777;DHT22;9517;51.174;4.160;2024-01-30T01:37:39;10.30;99.90
18777;DHT22;9517;51.174;4.160;2024-01-30T01:40:07;10.30;99.90
18777;DHT22;9517;51.174;4.160;2024-01-30T01:42:34;10.30;99.90
18777;DHT22;9517;51.174;4.160;2024-01-30T01:45:02;10.20;99.90
18777;DHT22;9517;51.174;4.160;2024-01-30T01:47:29;10.30;99.90
18777;DHT22;9517;51.174;4.160;2024-01-30T01:49:57;10.20;99.90
18777;DHT22;9517;51.174;4.160;2024-01-30T01:52:24;10.20;99.90
18777;DHT22;9517;51.174;4.160;2024-01-30T01:54:53;10.20;99.90
18777;DHT22;9517;51.174;4.160;2024-01-30T01:57:20;10.10;99.90
18777;DHT22;9517;51.174;4.160;2024-01-30T01:59:47;10.10;99.90
18777;DHT22;9517;51.174;4.160;2024-01-30T02:02:17;10.10;99.90
18777;DHT22;9517;51.174;4.160;2024-01-30T02:04:45;10.00;99.90
18777;DHT22;9517;51.174;4.160;2024-01-30T02:07:12;10.10;99.90
18777;DHT22;9517;51.174;4.160;2024-01-30T02:09:40;10.00;99.90
18777;DHT22;9517;51.174;4.160;2024-01-30T02:12:08;10.10;99.90
18777;DHT22;9517;51.174;4.160;2024-01-30T02:14:44;10.10;99.90
18777;DHT22;9517;51.174;4.160;2024-01-30T02:17:12;10.10;99.90
18777;DHT22;9517;51.174;4.160;2024-01-30T02:19:39;10.10;99.90
18777;DHT22;9517;51.174;4.160;2024-01-30T02:22:08;10.10;99.90
18777;DHT22;9517;51.174;4.160;2024-01-30T02:24:36;10.20;99.90
18777;DHT22;9517;51.174;4.160;2024-01-30T02:27:03;10.20;99.90
18777;DHT22;9517;51.174;4.160;2024-01-30T02:29:30;10.20;99.90
18777;DHT22;9517;51.174;4.160;2024-01-30T02:31:57;10.20;99.90
18777;DHT22;9517;51.174;4.160;2024-01-30T02:34:24;10.30;99.90
18777;DHT22;9517;51.174;4.160;2024-01-30T02:36:51;10.40;99.90
18777;DHT22;9517;51.174;4.160;2024-01-30T02:39:20;10.50;99.90
18777;DHT22;9517;51.174;4.160;2024-01-30T02:41:47;10.60;99.90
18777;DHT22;9517;51.174;4.160;2024-01-30T02:44:14;10.70;99.90
18777;DHT22;9517;51.174;4.160;2024-01-30T02:46:41;10.70;99.90
18777;DHT22;9517;51.174;4.160;2024-01-30T02:49:08;10.60;99.90
18777;DHT22;9517;51.174;4.160;2024-01-30T02:51:35;10.70;99.90
18777;DHT22;9517;51.174;4.160;2024-01-30T02:54:02;10.70;99.90
18777;DHT22;9517;51.174;4.160;2024-01-30T02:56:31;10.60;99.90
18777;DHT22;9517;51.174;4.160;2024-01-30T02:58:58;10.60;99.90
18777;DHT22;9517;51.174;4.160;2024-01-30T03:01:25;10.60;99.90
18777;DHT22;9517;51.174;4.160;2024-01-30T03:03:52;10.70;99.90
18777;DHT22;9517;51.174;4.160;2024-01-30T03:06:19;10.80;99.90
18777;DHT22;9517;51.174;4.160;2024-01-30T03:08:47;10.80;99.90
18777;DHT22;9517;51.174;4.160;2024-01-30T03:11:14;10.70;99.90
18777;DHT22;9517;51.174;4.160;2024-01-30T03:13:42;10.70;99.90
18777;DHT22;9517;51.174;4.160;2024-01-30T03:16:09;10.70;99.90
18777;DHT22;9517;51.174;4.160;2024-01-30T03:18:36;10.70;99.90
18777;DHT22;9517;51.174;4.160;2024-01-30T03:21:04;10.80;99.90
18777;DHT22;9517;51.174;4.160;2024-01-30T03:23:31;10.90;99.90
18777;DHT22;9517;51.174;4.160;2024-01-30T03:25:59;10.90;99.90
18777;DHT22;9517;51.174;4.160;2024-01-30T03:28:26;10.80;99.90
18777;DHT22;9517;51.174;4.160;2024-01-30T03:30:54;10.90;99.90
18777;DHT22;9517;51.174;4.160;2024-01-30T03:33:21;10.80;99.90
18777;DHT22;9517;51.174;4.160;2024-01-30T03:35:49;10.90;99.90
18777;DHT22;9517;51.174;4.160;2024-01-30T03:38:16;10.80;99.90
18777;DHT22;9517;51.174;4.160;2024-01-30T03:40:43;10.70;99.90
18777;DHT22;9517;51.174;4.160;2024-01-30T03:43:10;10.70;99.90
18777;DHT22;9517;51.174;4.160;2024-01-30T03:45:37;10.80;99.90
18777;DHT22;9517;51.174;4.160;2024-01-30T03:48:06;10.80;99.90
18777;DHT22;9517;51.174;4.160;2024-01-30T03:50:33;10.90;99.90
18777;DHT22;9517;51.174;4.160;2024-01-30T03:53:00;10.80;99.90
18777;DHT22;9517;51.174;4.160;2024-01-30T03:55:28;10.80;99.90
18777;DHT22;9517;51.174;4.160;2024-01-30T03:57:55;10.90;99.90
18777;DHT22;9517;51.174;4.160;2024-01-30T04:00:22;10.70;99.90
18777;DHT22;9517;51.174;4.160;2024-01-30T04:02:49;10.70;99.90
18777;DHT22;9517;51.174;4.160;2024-01-30T04:05:18;10.70;99.90
18777;DHT22;9517;51.174;4.160;2024-01-30T04:07:45;10.60;99.90
18777;DHT22;9517;51.174;4.160;2024-01-30T04:10:12;10.60;99.90
18777;DHT22;9517;51.174;4.160;2024-01-30T04:12:39;10.60;99.90
18777;DHT22;9517;51.174;4.160;2024-01-30T04:15:06;10.80;99.90
18777;DHT22;9517;51.174;4.160;2024-01-30T04:17:34;10.70;99.90
18777;DHT22;9517;51.174;4.160;2024-01-30T04:20:01;10.70;99.90
18777;DHT22;9517;51.174;4.160;2024-01-30T04:22:30;10.60;99.90
18777;DHT22;9517;51.174;4.160;2024-01-30T04:24:57;10.60;99.90
18777;DHT22;9517;51.174;4.160;2024-01-30T04:27:24;10.50;99.90
18777;DHT22;9517;51.174;4.160;2024-01-30T04:29:51;10.50;99.90
18777;DHT22;9517;51.174;4.160;2024-01-30T04:32:18;10.50;99.90
18777;DHT22;9517;51.174;4.160;2024-01-30T04:34:45;10.50;99.90
18777;DHT22;9517;51.174;4.160;2024-01-30T04:37:12;10.50;99.90
18777;DHT22;9517;51.174;4.160;2024-01-30T04:39:40;10.60;99.90
18777;DHT22;9517;51.174;4.160;2024-01-30T04:42:08;10.70;99.90
18777;DHT22;9517;51.174;4.160;2024-01-30T04:44:35;10.70;99.90
18777;DHT22;9517;51.174;4.160;2024-01-30T04:47:02;10.70;99.90
18777;DHT22;9517;51.174;4.160;2024-01-30T04:49:30;10.80;99.90
18777;DHT22;9517;51.174;4.160;2024-01-30T04:51:57;10.90;99.90
18777;DHT22;9517;51.174;4.160;2024-01-30T04:54:24;11.00;99.90
18777;DHT22;9517;51.174;4.160;2024-01-30T04:56:53;11.00;99.90
18777;DHT22;9517;51.174;4.160;2024-01-30T04:59:20;11.10;99.90
18777;DHT22;9517;51.174;4.160;2024-01-30T05:01:50;11.00;99.90
18777;DHT22;9517;51.174;4.160;2024-01-30T05:28:15;11.10;99.90
18777;DHT22;9517;51.174;4.160;2024-01-30T05:31:00;11.10;99.90
18777;DHT22;9517;51.174;4.160;2024-01-30T05:53:58;10.80;99.90
18777;DHT22;9517;51.174;4.160;2024-01-30T06:13:58;10.60;99.90
18777;DHT22;9517;51.174;4.160;2024-01-30T06:28:27;10.80;99.90
18777;DHT22;9517;51.174;4.160;2024-01-30T06:35:07;10.70;99.90
18777;DHT22;9517;51.174;4.160;2024-01-30T07:00:20;10.80;99.90
18777;DHT22;9517;51.174;4.160;2024-01-30T07:03:37;10.90;99.90
18777;DHT22;9517;51.174;4.160;2024-01-30T07:25:24;10.90;99.90
18777;DHT22;9517;51.174;4.160;2024-01-30T07:27:53;10.90;99.90
18777;DHT22;9517;51.174;4.160;2024-01-30T07:30:29;11.00;99.90
18777;DHT22;9517;51.174;4.160;2024-01-30T07:33:02;10.80;99.90
18777;DHT22;9517;51.174;4.160;2024-01-30T07:35:33;10.90;99.90
18777;DHT22;9517;51.174;4.160;2024-01-30T07:38:04;10.90;99.90
18777;DHT22;9517;51.174;4.160;2024-01-30T07:40:37;11.00;99.90
18777;DHT22;9517;51.174;4.160;2024-01-30T07:43:09;11.00;99.90
18777;DHT22;9517;51.174;4.160;2024-01-30T07:45:48;11.00;99.90
18777;DHT22;9517;51.174;4.160;2024-01-30T07:48:24;11.10;99.90
18777;DHT22;9517;51.174;4.160;2024-01-30T07:50:55;11.10;99.90
18777;DHT22;9517;51.174;4.160;2024-01-30T07:53:32;11.20;99.90
18777;DHT22;9517;51.174;4.160;2024-01-30T07:56:06;11.20;99.90
18777;DHT22;9517;51.174;4.160;2024-01-30T07:58:42;11.10;99.90
18777;DHT22;9517;51.174;4.160;2024-01-30T08:01:22;11.10;99.90
18777;DHT22;9517;51.174;4.160;2024-01-30T08:03:57;11.10;99.90
18777;DHT22;9517;51.174;4.160;2024-01-30T08:06:28;11.00;99.90
18777;DHT22;9517;51.174;4.160;2024-01-30T08:09:03;11.10;99.90
18777;DHT22;9517;51.174;4.160;2024-01-30T08:11:33;11.20;99.90
18777;DHT22;9517;51.174;4.160;2024-01-30T08:14:09;11.20;99.90
18777;DHT22;9517;51.174;4.160;2024-01-30T08:16:37;11.20;99.90
18777;DHT22;9517;51.174;4.160;2024-01-30T08:19:05;11.20;99.90
18777;DHT22;9517;51.174;4.160;2024-01-30T08:21:33;11.20;99.90
18777;DHT22;9517;51.174;4.160;2024-01-30T08:24:05;11.30;99.90
18777;DHT22;9517;51.174;4.160;2024-01-30T08:26:37;11.30;99.90
18777;DHT22;9517;51.174;4.160;2024-01-30T08:29:09;11.40;99.90
18777;DHT22;9517;51.174;4.160;2024-01-30T08:31:42;11.30;99.90
18777;DHT22;9517;51.174;4.160;2024-01-30T08:34:10;11.20;99.90
18777;DHT22;9517;51.174;4.160;2024-01-30T08:36:38;11.30;99.90
18777;DHT22;9517;51.174;4.160;2024-01-30T08:39:09;11.20;99.90
18777;DHT22;9517;51.174;4.160;2024-01-30T08:41:39;11.30;99.90
18777;DHT22;9517;51.174;4.160;2024-01-30T08:44:09;11.30;99.90
18777;DHT22;9517;51.174;4.160;2024-01-30T08:46:38;11.20;99.90
18777;DHT22;9517;51.174;4.160;2024-01-30T08:49:09;11.20;99.90
18777;DHT22;9517;51.174;4.160;2024-01-30T08:51:41;11.20;99.90
18777;DHT22;9517;51.174;4.160;2024-01-30T08:57:26;11.20;99.90
18777;DHT22;9517;51.174;4.160;2024-01-30T08:59:55;11.30;99.90
18777;DHT22;9517;51.174;4.160;2024-01-30T09:02:25;11.30;99.90
18777;DHT22;9517;51.174;4.160;2024-01-30T09:04:54;11.40;99.90
18777;DHT22;9517;51.174;4.160;2024-01-30T09:07:26;11.30;99.90
18777;DHT22;9517;51.174;4.160;2024-01-30T09:09:59;11.40;99.90
18777;DHT22;9517;51.174;4.160;2024-01-30T09:12:33;11.40;99.90
18777;DHT22;9517;51.174;4.160;2024-01-30T09:15:02;11.40;99.90
18777;DHT22;9517;51.174;4.160;2024-01-30T09:17:30;11.50;99.90
18777;DHT22;9517;51.174;4.160;2024-01-30T09:19:59;11.40;99.90
18777;DHT22;9517;51.174;4.160;2024-01-30T09:22:29;11.40;99.90
18777;DHT22;9517;51.174;4.160;2024-01-30T09:25:02;11.40;99.90
18777;DHT22;9517;51.174;4.160;2024-01-30T09:27:42;11.50;99.90
18777;DHT22;9517;51.174;4.160;2024-01-30T09:30:11;11.50;99.90
18777;DHT22;9517;51.174;4.160;2024-01-30T09:32:41;11.60;99.90
18777;DHT22;9517;51.174;4.160;2024-01-30T09:35:09;11.60;99.90
18777;DHT22;9517;51.174;4.160;2024-01-30T09:37:40;11.60;99.90
18777;DHT22;9517;51.174;4.160;2024-01-30T09:40:09;11.70;99.90
18777;DHT22;9517;51.174;4.160;2024-01-30T09:42:43;11.60;99.90
18777;DHT22;9517;51.174;4.160;2024-01-30T09:45:15;11.70;99.90
18777;DHT22;9517;51.174;4.160;2024-01-30T09:47:47;11.80;99.90
18777;DHT22;9517;51.174;4.160;2024-01-30T09:50:16;11.70;99.90
18777;DHT22;9517;51.174;4.160;2024-01-30T09:52:47;11.80;99.90
18777;DHT22;9517;51.174;4.160;2024-01-30T09:55:26;11.70;99.90
18777;DHT22;9517;51.174;4.160;2024-01-30T09:58:08;11.70;99.90
18777;DHT22;9517;51.174;4.160;2024-01-30T10:00:48;11.80;99.90
18777;DHT22;9517;51.174;4.160;2024-01-30T10:03:16;11.80;99.90
18777;DHT22;9517;51.174;4.160;2024-01-30T10:05:51;11.80;99.90
18777;DHT22;9517;51.174;4.160;2024-01-30T10:08:22;11.80;99.90
18777;DHT22;9517;51.174;4.160;2024-01-30T10:10:59;11.70;99.90
18777;DHT22;9517;51.174;4.160;2024-01-30T10:13:35;11.80;99.90
18777;DHT22;9517;51.174;4.160;2024-01-30T10:16:13;11.90;99.90
18777;DHT22;9517;51.174;4.160;2024-01-30T10:18:48;11.90;99.90
18777;DHT22;9517;51.174;4.160;2024-01-30T10:21:17;11.80;99.90
18777;DHT22;9517;51.174;4.160;2024-01-30T10:23:48;11.80;99.90
18777;DHT22;9517;51.174;4.160;2024-01-30T10:26:27;11.80;99.90
18777;DHT22;9517;51.174;4.160;2024-01-30T10:29:03;11.70;99.90
18777;DHT22;9517;51.174;4.160;2024-01-30T10:31:38;11.60;99.90
18777;DHT22;9517;51.174;4.160;2024-01-30T10:34:11;11.60;99.90
18777;DHT22;9517;51.174;4.160;2024-01-30T10:36:47;11.40;99.90
18777;DHT22;9517;51.174;4.160;2024-01-30T10:39:21;11.30;99.90
18777;DHT22;9517;51.174;4.160;2024-01-30T10:42:00;11.20;99.90
18777;DHT22;9517;51.174;4.160;2024-01-30T10:44:37;11.30;99.90
18777;DHT22;9517;51.174;4.160;2024-01-30T10:47:12;11.10;99.90
18777;DHT22;9517;51.174;4.160;2024-01-30T10:49:45;11.20;99.90
18777;DHT22;9517;51.174;4.160;2024-01-30T10:52:17;11.10;99.90
18777;DHT22;9517;51.174;4.160;2024-01-30T10:54:57;11.10;99.90
18777;DHT22;9517;51.174;4.160;2024-01-30T10:57:32;11.20;99.90
18777;DHT22;9517;51.174;4.160;2024-01-30T11:00:19;11.40;99.90
18777;DHT22;9517;51.174;4.160;2024-01-30T11:02:50;11.40;99.90
18777;DHT22;9517;51.174;4.160;2024-01-30T11:05:33;11.50;99.90
18777;DHT22;9517;51.174;4.160;2024-01-30T11:08:14;11.50;99.90
18777;DHT22;9517;51.174;4.160;2024-01-30T11:10:55;11.60;99.90
18777;DHT22;9517;51.174;4.160;2024-01-30T11:13:31;11.80;99.90
18777;DHT22;9517;51.174;4.160;2024-01-30T11:16:05;12.10;99.90
18777;DHT22;9517;51.174;4.160;2024-01-30T11:18:36;12.40;99.90
18777;DHT22;9517;51.174;4.160;2024-01-30T11:21:12;12.90;99.90
18777;DHT22;9517;51.174;4.160;2024-01-30T11:23:43;12.80;99.90
18777;DHT22;9517;51.174;4.160;2024-01-30T11:26:16;13.00;99.90
18777;DHT22;9517;51.174;4.160;2024-01-30T11:28:53;12.50;99.90
18777;DHT22;9517;51.174;4.160;2024-01-30T11:31:36;12.20;99.90
18777;DHT22;9517;51.174;4.160;2024-01-30T11:34:06;12.00;99.90
18777;DHT22;9517;51.174;4.160;2024-01-30T11:36:35;11.70;99.90
18777;DHT22;9517;51.174;4.160;2024-01-30T11:39:04;11.50;99.90
18777;DHT22;9517;51.174;4.160;2024-01-30T11:41:32;11.50;99.90
18777;DHT22;9517;51.174;4.160;2024-01-30T11:44:04;11.60;99.90
18777;DHT22;9517;51.174;4.160;2024-01-30T11:46:38;11.50;99.90
18777;DHT22;9517;51.174;4.160;2024-01-30T11:49:09;11.50;99.90
18777;DHT22;9517;51.174;4.160;2024-01-30T11:51:39;11.40;99.90
18777;DHT22;9517;51.174;4.160;2024-01-30T11:54:12;11.40;99.90
18777;DHT22;9517;51.174;4.160;2024-01-30T11:56:51;11.40;99.90
18777;DHT22;9517;51.174;4.160;2024-01-30T11:59:27;11.40;99.90
18777;DHT22;9517;51.174;4.160;2024-01-30T12:02:18;11.50;99.90
18777;DHT22;9517;51.174;4.160;2024-01-30T12:04:53;11.60;99.90
18777;DHT22;9517;51.174;4.160;2024-01-30T12:07:23;11.70;99.90
18777;DHT22;9517;51.174;4.160;2024-01-30T12:09:59;11.60;99.90
18777;DHT22;9517;51.174;4.160;2024-01-30T12:12:29;11.60;99.90
18777;DHT22;9517;51.174;4.160;2024-01-30T12:14:57;11.40;99.90
18777;DHT22;9517;51.174;4.160;2024-01-30T12:17:29;11.40;99.90
18777;DHT22;9517;51.174;4.160;2024-01-30T12:20:03;11.30;99.90
18777;DHT22;9517;51.174;4.160;2024-01-30T12:22:38;11.20;99.90
18777;DHT22;9517;51.174;4.160;2024-01-30T12:25:10;11.10;99.90
18777;DHT22;9517;51.174;4.160;2024-01-30T12:27:43;11.00;99.90
18777;DHT22;9517;51.174;4.160;2024-01-30T12:30:16;11.10;99.90
18777;DHT22;9517;51.174;4.160;2024-01-30T12:32:52;11.10;99.90
18777;DHT22;9517;51.174;4.160;2024-01-30T12:35:23;11.10;99.90
18777;DHT22;9517;51.174;4.160;2024-01-30T12:37:53;11.10;99.90
18777;DHT22;9517;51.174;4.160;2024-01-30T12:40:21;11.10;99.90
18777;DHT22;9517;51.174;4.160;2024-01-30T12:42:52;11.10;99.90
18777;DHT22;9517;51.174;4.160;2024-01-30T12:45:20;11.00;99.90
18777;DHT22;9517;51.174;4.160;2024-01-30T12:47:52;10.80;99.90
18777;DHT22;9517;51.174;4.160;2024-01-30T12:50:28;10.80;99.90
18777;DHT22;9517;51.174;4.160;2024-01-30T12:53:01;10.80;99.90
18777;DHT22;9517;51.174;4.160;2024-01-30T12:55:40;10.60;99.90
18777;DHT22;9517;51.174;4.160;2024-01-30T12:58:21;10.70;99.90
18777;DHT22;9517;51.174;4.160;2024-01-30T13:00:55;10.60;99.90
18777;DHT22;9517;51.174;4.160;2024-01-30T13:03:29;10.40;99.90
18777;DHT22;9517;51.174;4.160;2024-01-30T13:06:06;10.30;99.90
18777;DHT22;9517;51.174;4.160;2024-01-30T13:08:43;10.20;99.90
18777;DHT22;9517;51.174;4.160;2024-01-30T13:11:17;10.00;99.90
18777;DHT22;9517;51.174;4.160;2024-01-30T13:13:50;10.00;99.90
18777;DHT22;9517;51.174;4.160;2024-01-30T13:16:18;10.00;99.90
18777;DHT22;9517;51.174;4.160;2024-01-30T13:18:48;10.00;99.90
18777;DHT22;9517;51.174;4.160;2024-01-30T13:21:25;10.00;99.90
18777;DHT22;9517;51.174;4.160;2024-01-30T13:23:56;10.10;99.90
18777;DHT22;9517;51.174;4.160;2024-01-30T16:05:43;8.90;99.90
18777;DHT22;9517;51.174;4.160;2024-01-30T16:18:16;8.80;99.90
18777;DHT22;9517;51.174;4.160;2024-01-30T17:16:39;8.30;99.90
18777;DHT22;9517;51.174;4.160;2024-01-30T18:21:00;7.80;99.90
18777;DHT22;9517;51.174;4.160;2024-01-30T18:23:35;7.80;99.90
18777;DHT22;9517;51.174;4.160;2024-01-30T19:10:21;7.90;99.90
18777;DHT22;9517;51.174;4.160;2024-01-30T19:13:21;7.80;99.90
18777;DHT22;9517;51.174;4.160;2024-01-30T19:15:54;7.80;99.90
18777;DHT22;9517;51.174;4.160;2024-01-30T20:46:53;7.70;99.90
18777;DHT22;9517;51.174;4.160;2024-01-30T20:49:26;7.70;99.90
18777;DHT22;9517;51.174;4.160;2024-01-30T20:52:12;7.70;99.90
18777;DHT22;9517;51.174;4.160;2024-01-30T20:54:50;7.70;99.90
18777;DHT22;9517;51.174;4.160;2024-01-30T20:57:17;7.70;99.90
18777;DHT22;9517;51.174;4.160;2024-01-30T20:59:44;7.70;99.90
18777;DHT22;9517;51.174;4.160;2024-01-30T21:02:12;7.70;99.90
18777;DHT22;9517;51.174;4.160;2024-01-30T21:04:39;7.70;99.90
18777;DHT22;9517;51.174;4.160;2024-01-30T21:07:06;7.70;99.90
18777;DHT22;9517;51.174;4.160;2024-01-30T21:09:34;7.70;99.90
18777;DHT22;9517;51.174;4.160;2024-01-30T21:12:01;7.70;99.90
18777;DHT22;9517;51.174;4.160;2024-01-30T21:14:28;7.70;99.90
18777;DHT22;9517;51.174;4.160;2024-01-30T21:16:55;7.60;99.90
18777;DHT22;9517;51.174;4.160;2024-01-30T21:19:24;7.60;99.90
18777;DHT22;9517;51.174;4.160;2024-01-30T21:21:51;7.60;99.90
18777;DHT22;9517;51.174;4.160;2024-01-30T21:24:18;7.60;99.90
18777;DHT22;9517;51.174;4.160;2024-01-30T21:26:45;7.60;99.90
18777;DHT22;9517;51.174;4.160;2024-01-30T21:29:12;7.60;99.90
18777;DHT22;9517;51.174;4.160;2024-01-30T21:31:43;7.60;99.90
18777;DHT22;9517;51.174;4.160;2024-01-30T21:34:10;7.70;99.90
18777;DHT22;9517;51.174;4.160;2024-01-30T21:36:39;7.70;99.90
18777;DHT22;9517;51.174;4.160;2024-01-30T21:39:06;7.60;99.90
18777;DHT22;9517;51.174;4.160;2024-01-30T21:41:34;7.70;99.90
18777;DHT22;9517;51.174;4.160;2024-01-30T21:44:01;7.70;99.90
18777;DHT22;9517;51.174;4.160;2024-01-30T21:46:28;7.70;99.90
18777;DHT22;9517;51.174;4.160;2024-01-30T21:48:56;7.70;99.90
18777;DHT22;9517;51.174;4.160;2024-01-30T21:51:23;7.70;99.90
18777;DHT22;9517;51.174;4.160;2024-01-30T21:53:51;7.60;99.90
18777;DHT22;9517;51.174;4.160;2024-01-30T21:56:19;7.70;99.90
18777;DHT22;9517;51.174;4.160;2024-01-30T21:58:46;7.60;99.90
18777;DHT22;9517;51.174;4.160;2024-01-30T22:01:14;7.70;99.90
18777;DHT22;9517;51.174;4.160;2024-01-30T22:03:41;7.80;99.90
18777;DHT22;9517;51.174;4.160;2024-01-30T22:06:10;7.70;99.90
18777;DHT22;9517;51.174;4.160;2024-01-30T22:08:37;7.70;99.90
18777;DHT22;9517;51.174;4.160;2024-01-30T22:11:06;7.70;99.90
18777;DHT22;9517;51.174;4.160;2024-01-30T22:13:34;7.80;99.90
18777;DHT22;9517;51.174;4.160;2024-01-30T22:16:02;7.70;99.90
18777;DHT22;9517;51.174;4.160;2024-01-30T22:18:28;7.80;99.90
18777;DHT22;9517;51.174;4.160;2024-01-30T22:20:55;7.80;99.90
18777;DHT22;9517;51.174;4.160;2024-01-30T22:23:22;7.90;99.90
18777;DHT22;9517;51.174;4.160;2024-01-30T22:25:49;7.80;99.90
18777;DHT22;9517;51.174;4.160;2024-01-30T22:28:18;7.80;99.90
18777;DHT22;9517;51.174;4.160;2024-01-30T22:30:45;7.80;99.90
18777;DHT22;9517;51.174;4.160;2024-01-30T22:33:12;7.80;99.90
18777;DHT22;9517;51.174;4.160;2024-01-30T22:35:40;7.70;99.90
18777;DHT22;9517;51.174;4.160;2024-01-30T22:38:30;7.80;99.90
18777;DHT22;9517;51.174;4.160;2024-01-30T22:40:57;7.90;99.90
18777;DHT22;9517;51.174;4.160;2024-01-30T22:43:26;7.90;99.90
18777;DHT22;9517;51.174;4.160;2024-01-30T22:45:54;7.90;99.90
18777;DHT22;9517;51.174;4.160;2024-01-30T22:48:21;7.90;99.90
18777;DHT22;9517;51.174;4.160;2024-01-30T22:50:48;7.80;99.90
18777;DHT22;9517;51.174;4.160;2024-01-30T22:53:15;7.80;99.90
18777;DHT22;9517;51.174;4.160;2024-01-30T22:55:42;7.90;99.90
18777;DHT22;9517;51.174;4.160;2024-01-30T22:58:09;7.80;99.90
18777;DHT22;9517;51.174;4.160;2024-01-30T23:00:38;7.80;99.90
18777;DHT22;9517;51.174;4.160;2024-01-30T23:03:05;7.80;99.90
18777;DHT22;9517;51.174;4.160;2024-01-30T23:05:32;7.80;99.90
18777;DHT22;9517;51.174;4.160;2024-01-30T23:07:59;7.90;99.90
18777;DHT22;9517;51.174;4.160;2024-01-30T23:10:27;7.90;99.90
18777;DHT22;9517;51.174;4.160;2024-01-30T23:12:54;7.90;99.90
18777;DHT22;9517;51.174;4.160;2024-01-30T23:15:21;7.90;99.90
18777;DHT22;9517;51.174;4.160;2024-01-30T23:17:50;7.90;99.90
18777;DHT22;9517;51.174;4.160;2024-01-30T23:20:17;7.80;99.90
18777;DHT22;9517;51.174;4.160;2024-01-30T23:22:44;7.90;99.90
18777;DHT22;9517;51.174;4.160;2024-01-30T23:25:12;7.90;99.90
18777;DHT22;9517;51.174;4.160;2024-01-30T23:27:39;8.00;99.90
18777;DHT22;9517;51.174;4.160;2024-01-30T23:30:07;8.00;99.90
18777;DHT22;9517;51.174;4.160;2024-01-30T23:32:34;8.00;99.90
18777;DHT22;9517;51.174;4.160;2024-01-30T23:35:05;8.00;99.90
18777;DHT22;9517;51.174;4.160;2024-01-30T23:37:33;8.00;99.90
18777;DHT22;9517;51.174;4.160;2024-01-30T23:40:00;7.90;99.90
18777;DHT22;9517;51.174;4.160;2024-01-30T23:42:27;7.90;99.90
18777;DHT22;9517;51.174;4.160;2024-01-30T23:44:54;7.90;99.90
18777;DHT22;9517;51.174;4.160;2024-01-30T23:47:21;7.90;99.90
18777;DHT22;9517;51.174;4.160;2024-01-30T23:49:48;7.90;99.90
18777;DHT22;9517;51.174;4.160;2024-01-30T23:52:17;8.00;99.90
18777;DHT22;9517;51.174;4.160;2024-01-30T23:54:44;8.00;99.90
18777;DHT22;9517;51.174;4.160;2024-01-30T23:57:11;8.00;99.90
18777;DHT22;9517;51.174;4.160;2024-01-30T23:59:38;8.00;99.90
